createdAt,value
2022-07-31T00:00:51.995Z,100627.19
2022-07-31T00:03:20.125Z,100481.06
2022-07-31T00:05:48.140Z,100627.56
2022-07-31T00:08:16.110Z,100632.34
2022-07-31T00:10:44.128Z,100627.13
2022-07-31T00:13:13.662Z,100629.91
2022-07-31T00:15:42.197Z,100622.41
2022-07-31T00:18:10.267Z,100465.94
2022-07-31T00:20:38.376Z,100632.66
2022-07-31T00:23:06.656Z,100638.28
2022-07-31T00:25:34.936Z,100631.69
2022-07-31T00:28:03.244Z,100633.81
2022-07-31T00:30:32.809Z,100635.47
2022-07-31T00:33:00.800Z,100578.25
2022-07-31T00:35:28.938Z,100619.88
2022-07-31T00:38:24.709Z,100578.44
2022-07-31T00:40:49.121Z,100620.84
2022-07-31T00:43:19.082Z,100628.28
2022-07-31T00:45:58.462Z,100616.69
2022-07-31T00:48:27.902Z,100619.19
2022-07-31T00:50:56.643Z,100529.66
2022-07-31T00:53:25.829Z,100615.91
2022-07-31T00:55:54.052Z,100620.53
2022-07-31T00:58:22.134Z,100613.78
2022-07-31T01:00:52.696Z,100578.34
2022-07-31T01:03:20.882Z,100615.03
2022-07-31T01:05:49.240Z,100609.22
2022-07-31T01:08:17.414Z,100586.19
2022-07-31T01:10:52.258Z,100445.09
2022-07-31T01:13:29.508Z,100537.94
2022-07-31T01:16:02.729Z,100550.41
2022-07-31T01:18:34.765Z,100595.28
2022-07-31T01:21:07.165Z,100555.59
2022-07-31T01:24:13.761Z,100594.78
2022-07-31T01:27:26.955Z,100593.19
2022-07-31T01:30:00.448Z,100586.56
2022-07-31T01:32:32.270Z,100570.56
2022-07-31T01:35:06.500Z,100595.22
2022-07-31T01:37:38.424Z,100595.28
2022-07-31T01:40:11.197Z,100556.84
2022-07-31T01:42:42.155Z,100591.00
2022-07-31T01:45:14.816Z,100557.31
2022-07-31T01:47:44.733Z,100544.59
2022-07-31T01:50:43.333Z,100572.66
2022-07-31T01:53:03.372Z,100607.28
2022-07-31T01:56:02.563Z,100603.59
2022-07-31T01:58:23.702Z,100577.72
2022-07-31T02:00:55.183Z,100611.13
2022-07-31T02:03:44.373Z,100560.47
2022-07-31T02:06:17.411Z,100590.25
2022-07-31T02:08:47.279Z,100579.75
2022-07-31T02:11:19.430Z,100586.28
2022-07-31T02:13:49.534Z,100592.09
2022-07-31T02:16:20.722Z,100592.81
2022-07-31T02:18:55.315Z,100597.28
2022-07-31T02:21:25.857Z,100562.97
2022-07-31T02:23:54.791Z,100570.28
2022-07-31T02:26:23.941Z,100601.72
2022-07-31T02:28:53.045Z,100511.25
2022-07-31T02:31:24.552Z,100567.31
2022-07-31T02:33:54.109Z,100591.72
2022-07-31T02:36:23.348Z,100589.13
2022-07-31T02:38:53.263Z,100543.59
2022-07-31T02:41:22.779Z,100587.78
2022-07-31T02:43:51.914Z,100577.94
2022-07-31T02:46:24.445Z,100578.75
2022-07-31T02:48:54.296Z,100585.38
2022-07-31T02:51:25.308Z,100574.03
2022-07-31T02:53:55.882Z,100585.28
2022-07-31T02:56:27.275Z,100586.50
2022-07-31T02:58:55.804Z,100570.03
2022-07-31T03:01:29.904Z,100589.84
2022-07-31T03:03:58.169Z,100560.69
2022-07-31T03:06:29.443Z,100584.50
2022-07-31T03:08:57.864Z,100577.03
2022-07-31T03:11:27.235Z,100574.84
2022-07-31T03:13:58.256Z,100578.53
2022-07-31T03:16:27.896Z,100574.94
2022-07-31T03:18:58.628Z,100570.78
2022-07-31T03:21:27.246Z,100549.81
2022-07-31T03:23:56.222Z,100540.22
2022-07-31T03:26:24.857Z,100522.53
2022-07-31T03:28:53.011Z,100559.97
2022-07-31T03:31:21.283Z,100481.38
2022-07-31T03:33:49.411Z,100539.28
2022-07-31T03:36:19.449Z,100557.13
2022-07-31T03:38:50.465Z,100554.69
2022-07-31T03:41:42.162Z,100553.34
2022-07-31T03:44:11.589Z,100557.81
2022-07-31T03:46:40.046Z,100472.72
2022-07-31T03:49:09.208Z,100459.19
2022-07-31T03:51:38.959Z,100566.16
2022-07-31T03:54:07.250Z,100569.22
2022-07-31T03:57:02.022Z,100574.75
2022-07-31T03:59:34.812Z,100541.63
2022-07-31T04:02:11.444Z,100563.31
2022-07-31T04:04:47.420Z,100506.03
2022-07-31T04:07:17.322Z,100446.31
2022-07-31T04:09:45.717Z,100571.69
2022-07-31T04:12:18.162Z,100570.63
2022-07-31T04:14:46.309Z,100572.53
2022-07-31T04:17:14.247Z,100572.19
2022-07-31T04:19:42.075Z,100570.09
2022-07-31T04:22:10.306Z,100571.88
2022-07-31T04:24:40.780Z,100578.69
2022-07-31T04:27:12.739Z,100583.41
2022-07-31T04:29:44.733Z,100581.13
2022-07-31T04:32:12.909Z,100578.69
2022-07-31T04:35:04.224Z,100577.28
2022-07-31T04:37:32.140Z,100575.50
2022-07-31T04:40:02.521Z,100579.28
2022-07-31T04:42:32.750Z,100566.66
2022-07-31T04:45:01.562Z,100571.50
2022-07-31T04:47:29.492Z,100572.06
2022-07-31T04:49:58.562Z,100576.03
2022-07-31T04:52:27.897Z,100579.22
2022-07-31T04:54:58.548Z,100577.78
2022-07-31T04:57:29.831Z,100580.31
2022-07-31T05:00:00.644Z,100578.22
2022-07-31T05:02:33.682Z,100575.63
2022-07-31T05:05:02.136Z,100571.69
2022-07-31T05:07:42.600Z,100574.00
2022-07-31T05:10:35.156Z,100578.59
2022-07-31T05:13:04.823Z,100573.88
2022-07-31T05:15:34.494Z,100578.94
2022-07-31T05:18:03.070Z,100571.41
2022-07-31T05:20:48.860Z,100563.34
2022-07-31T05:23:39.938Z,100557.22
2022-07-31T05:26:14.869Z,100554.69
2022-07-31T05:28:46.424Z,100554.09
2022-07-31T05:31:14.879Z,100549.53
2022-07-31T05:33:43.327Z,100548.19
2022-07-31T05:36:11.298Z,100550.03
2022-07-31T05:38:39.413Z,100552.09
2022-07-31T05:41:42.360Z,100551.59
2022-07-31T05:44:26.432Z,100557.13
2022-07-31T05:49:22.366Z,100552.91
2022-07-31T05:51:54.634Z,100550.47
2022-07-31T05:54:22.874Z,100550.34
2022-07-31T05:57:09.642Z,100548.31
2022-07-31T05:59:44.148Z,100542.06
2022-07-31T06:02:12.051Z,100538.13
2022-07-31T06:04:58.605Z,100539.00
2022-07-31T06:07:29.487Z,100543.44
2022-07-31T06:09:58.088Z,100545.69
2022-07-31T06:12:25.953Z,100553.63
2022-07-31T06:14:55.331Z,100551.66
2022-07-31T06:17:43.869Z,100557.41
2022-07-31T06:20:32.848Z,100553.63
2022-07-31T06:23:01.812Z,100556.66
2022-07-31T06:25:39.129Z,100556.13
2022-07-31T06:28:10.631Z,100554.38
2022-07-31T06:30:42.383Z,100549.91
2022-07-31T06:33:16.608Z,100553.63
2022-07-31T06:35:58.581Z,100548.63
2022-07-31T06:38:40.581Z,100547.72
2022-07-31T06:41:47.363Z,100551.88
2022-07-31T06:44:40.438Z,100544.00
2022-07-31T06:47:34.271Z,100543.78
2022-07-31T06:50:11.865Z,100541.19
2022-07-31T06:52:46.304Z,100542.09
2022-07-31T06:55:14.395Z,100536.16
2022-07-31T06:57:42.465Z,100538.75
2022-07-31T07:00:19.982Z,100536.88
2022-07-31T07:02:51.414Z,100526.38
2022-07-31T07:05:19.308Z,100528.53
2022-07-31T07:07:51.238Z,100527.47
2022-07-31T07:10:19.212Z,100530.34
2022-07-31T07:13:13.362Z,100532.75
2022-07-31T07:15:42.115Z,100527.78
2022-07-31T07:18:12.462Z,100520.59
2022-07-31T07:20:50.075Z,100519.34
2022-07-31T07:23:18.342Z,100520.13
2022-07-31T07:26:15.567Z,100516.50
2022-07-31T07:28:43.511Z,100516.03
2022-07-31T07:31:11.401Z,100512.81
2022-07-31T07:33:42.786Z,100508.75
2022-07-31T07:36:24.041Z,100515.47
2022-07-31T07:38:57.249Z,100510.06
2022-07-31T07:41:25.562Z,100503.47
2022-07-31T07:43:53.680Z,100497.19
2022-07-31T07:46:25.232Z,100492.78
2022-07-31T07:48:58.801Z,100498.41
2022-07-31T07:51:37.454Z,100489.31
2022-07-31T07:54:28.559Z,100493.84
2022-07-31T07:57:28.469Z,100498.19
2022-07-31T08:00:16.321Z,100498.81
2022-07-31T08:02:44.982Z,100492.41
2022-07-31T08:05:35.008Z,100486.66
2022-07-31T08:08:03.108Z,100478.75
2022-07-31T08:10:38.796Z,100476.03
2022-07-31T08:13:11.436Z,100476.34
2022-07-31T08:16:11.791Z,100484.09
2022-07-31T08:18:45.510Z,100490.94
2022-07-31T08:21:15.468Z,100478.47
2022-07-31T08:23:43.387Z,100483.25
2022-07-31T08:26:11.541Z,100475.59
2022-07-31T08:28:41.352Z,100479.63
2022-07-31T08:31:09.499Z,100482.03
2022-07-31T08:33:50.484Z,100469.75
2022-07-31T08:36:20.225Z,100469.47
2022-07-31T08:38:49.383Z,100474.78
2022-07-31T08:41:39.167Z,100464.56
2022-07-31T08:44:07.863Z,100458.66
2022-07-31T08:46:38.123Z,100460.09
2022-07-31T08:49:06.838Z,100465.88
2022-07-31T08:51:51.350Z,100450.56
2022-07-31T08:54:40.512Z,100447.03
2022-07-31T08:57:12.764Z,100449.63
2022-07-31T08:59:42.234Z,100443.88
2022-07-31T09:02:09.957Z,100444.06
2022-07-31T09:04:45.904Z,100444.31
2022-07-31T09:07:17.100Z,100439.84
2022-07-31T09:09:50.866Z,100431.56
2022-07-31T09:12:32.325Z,100425.78
2022-07-31T09:15:20.905Z,100433.66
2022-07-31T09:17:54.328Z,100432.63
2022-07-31T09:20:23.978Z,100431.00
2022-07-31T09:23:05.188Z,100424.88
2022-07-31T09:25:35.591Z,100423.25
2022-07-31T09:28:05.086Z,100420.03
2022-07-31T09:30:34.655Z,100407.25
2022-07-31T09:33:22.056Z,100424.88
2022-07-31T09:36:13.638Z,100412.69
2022-07-31T09:38:47.435Z,100418.59
2022-07-31T09:42:01.416Z,100414.78
2022-07-31T09:44:36.185Z,100412.72
2022-07-31T09:47:05.569Z,100412.72
2022-07-31T09:49:35.347Z,100407.66
2022-07-31T09:52:03.550Z,100413.06
2022-07-31T09:54:33.176Z,100399.00
2022-07-31T09:57:11.563Z,100398.69
2022-07-31T09:59:42.821Z,100403.53
2022-07-31T10:02:14.469Z,100404.84
2022-07-31T10:04:44.960Z,100395.28
2022-07-31T10:07:24.415Z,100398.19
2022-07-31T10:10:14.471Z,100393.38
2022-07-31T10:13:01.388Z,100395.03
2022-07-31T10:15:29.650Z,100395.19
2022-07-31T10:18:36.120Z,100393.53
2022-07-31T10:21:35.035Z,100389.81
2022-07-31T10:24:11.216Z,100384.81
2022-07-31T10:27:01.229Z,100390.88
2022-07-31T10:29:32.576Z,100380.25
2022-07-31T10:32:04.032Z,100379.72
2022-07-31T10:34:34.895Z,100382.28
2022-07-31T10:37:44.297Z,100370.88
2022-07-31T10:40:35.383Z,100369.16
2022-07-31T10:43:17.955Z,100366.88
2022-07-31T10:45:51.710Z,100367.31
2022-07-31T10:48:52.679Z,100359.03
2022-07-31T10:51:47.008Z,100360.06
2022-07-31T10:54:39.944Z,100359.44
2022-07-31T10:57:27.024Z,100358.97
2022-07-31T11:00:17.475Z,100352.53
2022-07-31T11:03:15.460Z,100351.41
2022-07-31T11:06:12.254Z,100348.97
2022-07-31T11:08:58.461Z,100339.13
2022-07-31T11:11:58.612Z,100335.06
2022-07-31T11:14:52.329Z,100338.88
2022-07-31T11:18:22.429Z,100341.53
2022-07-31T11:20:46.893Z,100339.91
2022-07-31T11:23:16.793Z,100342.25
2022-07-31T11:25:45.967Z,100336.63
2022-07-31T11:28:15.249Z,100332.03
2022-07-31T11:30:53.485Z,100326.28
2022-07-31T11:33:41.890Z,100327.69
2022-07-31T11:36:12.722Z,100329.03
2022-07-31T11:38:41.625Z,100322.81
2022-07-31T11:41:09.937Z,100326.97
2022-07-31T11:43:39.828Z,100322.84
2022-07-31T11:46:08.235Z,100323.88
2022-07-31T11:48:43.521Z,100319.09
2022-07-31T11:51:17.835Z,100311.53
2022-07-31T11:53:45.939Z,100311.84
2022-07-31T11:56:20.890Z,100286.03
2022-07-31T11:58:49.469Z,100295.84
2022-07-31T12:01:17.732Z,100292.97
2022-07-31T12:03:47.737Z,100297.97
2022-07-31T12:06:19.179Z,100295.53
2022-07-31T12:08:48.257Z,100285.78
2022-07-31T12:11:16.529Z,100292.63
2022-07-31T12:13:46.252Z,100286.44
2022-07-31T12:16:14.167Z,100280.75
2022-07-31T12:18:51.950Z,100284.03
2022-07-31T12:21:20.288Z,100283.72
2022-07-31T12:23:50.094Z,100281.28
2022-07-31T12:26:23.550Z,100284.03
2022-07-31T12:28:58.695Z,100287.78
2022-07-31T12:31:26.743Z,100274.38
2022-07-31T12:33:56.063Z,100275.06
2022-07-31T12:36:23.909Z,100268.91
2022-07-31T12:39:00.261Z,100264.06
2022-07-31T12:41:28.345Z,100259.09
2022-07-31T12:43:56.095Z,100255.28
2022-07-31T12:46:35.982Z,100251.88
2022-07-31T12:49:05.285Z,100247.06
2022-07-31T12:51:45.885Z,100254.59
2022-07-31T12:54:15.467Z,100248.59
2022-07-31T12:56:43.673Z,100248.59
2022-07-31T12:59:12.171Z,100252.00
2022-07-31T13:01:40.297Z,100246.69
2022-07-31T13:04:18.593Z,100238.81
2022-07-31T13:06:51.400Z,100240.84
2022-07-31T13:09:19.864Z,100247.22
2022-07-31T13:11:48.450Z,100247.91
2022-07-31T13:14:17.227Z,100247.22
2022-07-31T13:16:45.107Z,100252.53
2022-07-31T13:19:15.031Z,100243.00
2022-07-31T13:21:49.053Z,100238.78
2022-07-31T13:24:19.021Z,100242.75
2022-07-31T13:26:47.370Z,100241.72
2022-07-31T13:29:15.314Z,100234.81
2022-07-31T13:31:43.385Z,100234.16
2022-07-31T13:34:11.487Z,100233.44
2022-07-31T13:36:40.815Z,100235.16
2022-07-31T13:39:08.840Z,100234.97
2022-07-31T13:41:39.047Z,100233.44
2022-07-31T13:44:07.558Z,100240.91
2022-07-31T13:46:35.978Z,100237.88
2022-07-31T13:49:08.700Z,100240.53
2022-07-31T13:51:37.082Z,100237.34
2022-07-31T13:54:06.563Z,100237.81
2022-07-31T13:56:42.863Z,100245.81
2022-07-31T13:59:11.961Z,100227.97
2022-07-31T14:02:13.231Z,100219.88
2022-07-31T14:04:28.506Z,100226.88
2022-07-31T14:07:00.711Z,100231.59
2022-07-31T14:09:30.091Z,100238.50
2022-07-31T14:11:57.871Z,100241.84
2022-07-31T14:14:25.998Z,100233.22
2022-07-31T14:16:55.393Z,100240.88
2022-07-31T14:19:23.245Z,100243.75
2022-07-31T14:21:56.303Z,100186.56
2022-07-31T14:24:25.840Z,100259.00
2022-07-31T14:26:55.290Z,100260.34
2022-07-31T14:29:23.120Z,100271.47
2022-07-31T14:31:51.143Z,100270.06
2022-07-31T14:34:18.927Z,100279.16
2022-07-31T14:36:46.795Z,100274.22
2022-07-31T14:39:14.822Z,100274.28
2022-07-31T14:41:42.650Z,100276.53
2022-07-31T14:44:11.752Z,100278.94
2022-07-31T14:46:39.705Z,100276.91
2022-07-31T14:49:08.709Z,100275.19
2022-07-31T14:51:36.765Z,100274.28
2022-07-31T14:54:05.187Z,100272.25
2022-07-31T14:56:59.861Z,100264.03
2022-07-31T14:59:22.901Z,100267.13
2022-07-31T15:01:51.002Z,100261.97
2022-07-31T15:04:18.838Z,100259.81
2022-07-31T15:06:56.413Z,100261.69
2022-07-31T15:09:31.058Z,100259.06
2022-07-31T15:12:01.187Z,100253.06
2022-07-31T15:14:31.097Z,100257.41
2022-07-31T15:16:59.122Z,100261.06
2022-07-31T15:19:27.192Z,100252.25
2022-07-31T15:22:10.227Z,100262.88
2022-07-31T15:24:48.454Z,100255.06
2022-07-31T15:27:17.675Z,100261.75
2022-07-31T15:30:06.028Z,100262.94
2022-07-31T15:32:35.284Z,100257.78
2022-07-31T15:35:03.395Z,100258.69
2022-07-31T15:37:31.583Z,100264.44
2022-07-31T15:40:02.484Z,100260.44
2022-07-31T15:42:31.725Z,100250.59
2022-07-31T15:45:01.028Z,100254.03
2022-07-31T15:47:28.814Z,100250.97
2022-07-31T15:49:56.852Z,100256.19
2022-07-31T15:52:24.671Z,100264.44
2022-07-31T15:54:53.132Z,100257.81
2022-07-31T15:57:21.226Z,100265.81
2022-07-31T15:59:49.754Z,100262.38
2022-07-31T16:02:19.245Z,100264.47
2022-07-31T16:04:52.584Z,100253.00
2022-07-31T16:08:29.263Z,100263.66
2022-07-31T16:10:16.307Z,100251.41
2022-07-31T16:12:45.694Z,100245.50
2022-07-31T16:15:13.945Z,100242.63
2022-07-31T16:17:43.191Z,100245.22
2022-07-31T16:20:11.929Z,100242.78
2022-07-31T16:22:41.023Z,100239.50
2022-07-31T16:25:09.984Z,100237.19
2022-07-31T16:27:38.246Z,100233.84
2022-07-31T16:30:06.986Z,100227.69
2022-07-31T16:32:35.057Z,100229.69
2022-07-31T16:35:06.167Z,100221.03
2022-07-31T16:37:50.322Z,100215.97
2022-07-31T16:40:30.490Z,100208.34
2022-07-31T16:43:00.851Z,100213.56
2022-07-31T16:45:29.194Z,100213.00
2022-07-31T16:47:57.030Z,100200.75
2022-07-31T16:50:26.954Z,100194.41
2022-07-31T16:52:55.451Z,100198.53
2022-07-31T16:55:51.659Z,100186.38
2022-07-31T16:58:12.014Z,100178.13
2022-07-31T17:00:40.254Z,100186.16
2022-07-31T17:03:58.849Z,100177.84
2022-07-31T17:05:58.119Z,100170.31
2022-07-31T17:08:26.293Z,100171.78
2022-07-31T17:10:54.952Z,100171.41
2022-07-31T17:13:23.056Z,100157.91
2022-07-31T17:15:50.879Z,100170.28
2022-07-31T17:18:18.953Z,100161.63
2022-07-31T17:20:48.228Z,100159.88
2022-07-31T17:23:18.176Z,100151.53
2022-07-31T17:26:06.238Z,100152.69
2022-07-31T17:28:34.044Z,100155.13
2022-07-31T17:31:02.832Z,100152.53
2022-07-31T17:33:59.350Z,100149.25
2022-07-31T17:36:18.664Z,100151.66
2022-07-31T17:38:48.064Z,100147.22
2022-07-31T17:41:24.639Z,100149.78
2022-07-31T17:43:53.670Z,100144.50
2022-07-31T17:46:34.962Z,100152.28
2022-07-31T17:49:05.253Z,100146.53
2022-07-31T17:51:33.283Z,100142.50
2022-07-31T17:54:03.162Z,100137.31
2022-07-31T17:56:31.097Z,100145.69
2022-07-31T17:59:04.703Z,100138.06
2022-07-31T18:01:33.298Z,100151.44
2022-07-31T18:04:01.225Z,100146.97
2022-07-31T18:06:29.159Z,100148.56
2022-07-31T18:08:57.506Z,100157.19
2022-07-31T18:11:26.887Z,100153.28
2022-07-31T18:13:55.674Z,100161.47
2022-07-31T18:16:28.937Z,100158.31
2022-07-31T18:18:56.751Z,100163.38
2022-07-31T18:21:24.771Z,100156.03
2022-07-31T18:23:52.759Z,100160.66
2022-07-31T18:26:20.475Z,100162.22
2022-07-31T18:28:49.742Z,100159.81
2022-07-31T18:31:34.381Z,100157.94
2022-07-31T18:34:04.002Z,100147.72
2022-07-31T18:36:31.992Z,100150.47
2022-07-31T18:39:00.027Z,100152.34
2022-07-31T18:41:28.016Z,100146.16
2022-07-31T18:43:57.745Z,100150.88
2022-07-31T18:46:25.765Z,100151.19
2022-07-31T18:48:55.822Z,100148.44
2022-07-31T18:51:24.286Z,100153.31
2022-07-31T18:53:54.453Z,100147.28
2022-07-31T18:56:22.815Z,100155.03
2022-07-31T18:58:50.640Z,100148.72
2022-07-31T19:01:19.825Z,100157.31
2022-07-31T19:03:47.778Z,100160.31
2022-07-31T19:06:15.571Z,100176.72
2022-07-31T19:08:43.283Z,100177.59
2022-07-31T19:11:11.787Z,100187.00
2022-07-31T19:13:39.635Z,100189.00
2022-07-31T19:16:07.593Z,100188.53
2022-07-31T19:18:37.725Z,100204.50
2022-07-31T19:21:22.907Z,100211.63
2022-07-31T19:23:53.858Z,100211.78
2022-07-31T19:26:21.645Z,100215.84
2022-07-31T19:28:49.691Z,100218.72
2022-07-31T19:31:17.743Z,100228.19
2022-07-31T19:33:47.647Z,100224.03
2022-07-31T19:36:15.458Z,100227.53
2022-07-31T19:38:44.425Z,100221.53
2022-07-31T19:41:14.011Z,100222.78
2022-07-31T19:43:41.782Z,100218.06
2022-07-31T19:46:12.332Z,100225.22
2022-07-31T19:48:41.234Z,100226.78
2022-07-31T19:51:10.802Z,100234.03
2022-07-31T19:53:38.822Z,100236.00
2022-07-31T19:56:06.893Z,100237.13
2022-07-31T19:58:35.492Z,100237.00
2022-07-31T20:01:03.894Z,100232.41
2022-07-31T20:03:31.929Z,100233.16
2022-07-31T20:05:59.991Z,100235.75
2022-07-31T20:08:33.528Z,100237.53
2022-07-31T20:11:03.981Z,100231.31
2022-07-31T20:13:32.824Z,100232.94
2022-07-31T20:16:00.807Z,100232.41
2022-07-31T20:18:29.565Z,100217.06
2022-07-31T20:20:58.972Z,100223.13
2022-07-31T20:23:27.347Z,100216.84
2022-07-31T20:25:56.529Z,100210.91
2022-07-31T20:28:24.464Z,100220.06
2022-07-31T20:30:52.314Z,100222.66
2022-07-31T20:33:20.058Z,100222.81
2022-07-31T20:35:50.126Z,100216.84
2022-07-31T20:38:18.404Z,100217.84
2022-07-31T20:40:53.653Z,100214.88
2022-07-31T20:43:25.692Z,100211.41
2022-07-31T20:45:54.209Z,100208.31
2022-07-31T20:48:24.558Z,100202.25
2022-07-31T20:50:53.107Z,100200.25
2022-07-31T20:53:22.070Z,100205.94
2022-07-31T20:55:50.566Z,100202.00
2022-07-31T20:58:18.526Z,100204.97
2022-07-31T21:00:48.526Z,100197.53
2022-07-31T21:03:17.250Z,100204.19
2022-07-31T21:05:45.530Z,100206.69
2022-07-31T21:08:13.465Z,100197.78
2022-07-31T21:10:41.250Z,100200.13
2022-07-31T21:13:09.300Z,100196.50
2022-07-31T21:15:42.254Z,100199.09
2022-07-31T21:18:13.326Z,100195.91
2022-07-31T21:20:51.040Z,100197.75
2022-07-31T21:23:21.591Z,100197.59
2022-07-31T21:25:49.588Z,100197.50
2022-07-31T21:28:17.805Z,100195.06
2022-07-31T21:30:45.958Z,100198.31
2022-07-31T21:33:15.784Z,100196.84
2022-07-31T21:35:43.952Z,100197.47
2022-07-31T21:38:12.584Z,100202.56
2022-07-31T21:40:41.252Z,100202.59
2022-07-31T21:43:09.319Z,100207.91
2022-07-31T21:45:45.723Z,100210.75
2022-07-31T21:48:24.894Z,100203.47
2022-07-31T21:50:53.606Z,100211.03
2022-07-31T21:53:21.575Z,100204.72
2022-07-31T21:55:49.764Z,100209.19
2022-07-31T21:58:18.845Z,100209.16
2022-07-31T22:00:46.859Z,100210.91
2022-07-31T22:03:14.713Z,100222.06
2022-07-31T22:06:01.788Z,100213.13
2022-07-31T22:08:29.644Z,100218.34
2022-07-31T22:10:57.431Z,100212.25
2022-07-31T22:13:25.455Z,100220.31
2022-07-31T22:16:00.534Z,100219.56
2022-07-31T22:18:32.284Z,100220.06
2022-07-31T22:21:04.967Z,100214.63
2022-07-31T22:23:33.260Z,100215.59
2022-07-31T22:26:01.242Z,100217.22
2022-07-31T22:28:29.591Z,100221.53
2022-07-31T22:30:57.728Z,100222.28
2022-07-31T22:33:26.578Z,100215.72
2022-07-31T22:35:59.475Z,100215.38
2022-07-31T22:38:30.210Z,100223.78
2022-07-31T22:40:58.383Z,100149.38
2022-07-31T22:44:12.798Z,100210.91
2022-07-31T22:46:14.457Z,100226.38
2022-07-31T22:48:42.331Z,100212.03
2022-07-31T22:51:10.597Z,100223.28
2022-07-31T22:53:40.526Z,100215.72
2022-07-31T22:56:08.553Z,100218.44
2022-07-31T22:58:36.409Z,100227.84
2022-07-31T23:01:04.332Z,100220.78
2022-07-31T23:03:32.222Z,100226.22
2022-07-31T23:06:13.083Z,100230.94
2022-07-31T23:08:54.829Z,100227.72
2022-07-31T23:11:23.288Z,100235.88
2022-07-31T23:13:51.236Z,100218.56
2022-07-31T23:16:20.573Z,100219.31
2022-07-31T23:18:48.764Z,100226.84
2022-07-31T23:21:16.862Z,100227.22
2022-07-31T23:23:48.035Z,100224.03
2022-07-31T23:26:18.980Z,100223.16
2022-07-31T23:28:47.238Z,100225.28
2022-07-31T23:31:15.124Z,100229.22
2022-07-31T23:33:42.959Z,100226.59
2022-07-31T23:36:10.926Z,100219.44
2022-07-31T23:38:38.844Z,100219.81
2022-07-31T23:41:06.806Z,100219.47
2022-07-31T23:43:35.307Z,100218.94
2022-07-31T23:46:03.354Z,100218.84
2022-07-31T23:48:31.443Z,100213.03
2022-07-31T23:50:59.408Z,100218.47
2022-07-31T23:53:27.336Z,100212.38
2022-07-31T23:55:55.059Z,100206.72
2022-07-31T23:58:22.929Z,100203.16
